createdAt,value
2022-12-29T00:00:17.161Z,100067.80
2022-12-29T00:03:14.361Z,100066.00
2022-12-29T00:05:56.148Z,100069.00
2022-12-29T00:08:42.109Z,100069.60
2022-12-29T00:11:21.109Z,100072.20
2022-12-29T00:14:14.283Z,100072.80
2022-12-29T00:16:51.112Z,100062.20
2022-12-29T00:19:44.225Z,100052.20
2022-12-29T00:22:39.037Z,100049.60
2022-12-29T00:25:34.172Z,100052.80
2022-12-29T00:28:30.446Z,100051.60
2022-12-29T00:31:27.791Z,100051.80
2022-12-29T00:34:20.995Z,100056.40
2022-12-29T00:36:58.147Z,100052.20
2022-12-29T00:39:53.195Z,100041.20
2022-12-29T00:42:47.026Z,100032.00
2022-12-29T00:45:23.137Z,100034.20
2022-12-29T00:48:00.118Z,100024.60
2022-12-29T00:59:09.403Z,100006.20
2022-12-29T01:01:43.761Z,100006.00
2022-12-29T01:04:18.573Z,100005.20
2022-12-29T01:06:52.797Z,100009.40
2022-12-29T01:09:44.887Z,100002.60
2022-12-29T01:12:39.064Z,99999.20
2022-12-29T01:15:17.048Z,99996.20
2022-12-29T01:17:51.225Z,99999.40
2022-12-29T01:20:24.961Z,100003.60
2022-12-29T01:22:58.709Z,99993.60
2022-12-29T01:25:32.703Z,99995.80
2022-12-29T01:28:07.661Z,100000.60
2022-12-29T01:30:41.602Z,99997.40
2022-12-29T01:33:15.179Z,99996.00
2022-12-29T01:35:48.842Z,99989.80
2022-12-29T01:38:22.749Z,99984.40
2022-12-29T01:40:57.053Z,99985.80
2022-12-29T01:43:47.098Z,99983.00
2022-12-29T01:46:32.022Z,99980.40
2022-12-29T01:49:16.093Z,99988.40
2022-12-29T01:51:59.525Z,99986.00
2022-12-29T01:54:42.535Z,99985.80
2022-12-29T01:57:22.741Z,99977.80
2022-12-29T02:00:02.432Z,99973.00
2022-12-29T02:02:51.016Z,99970.20
2022-12-29T02:05:35.510Z,99969.60
2022-12-29T02:08:10.635Z,99962.60
2022-12-29T02:10:46.794Z,99957.00
2022-12-29T02:13:22.785Z,99957.20
2022-12-29T02:16:17.086Z,99946.80
2022-12-29T02:19:12.508Z,99951.00
2022-12-29T02:22:10.234Z,99947.60
2022-12-29T02:25:40.689Z,99945.60
2022-12-29T02:28:49.789Z,99950.60
2022-12-29T02:31:32.689Z,99946.00
2022-12-29T02:34:23.483Z,99944.80
2022-12-29T02:37:09.506Z,99948.60
2022-12-29T02:39:52.203Z,99942.20
2022-12-29T02:42:37.723Z,99941.20
2022-12-29T02:45:20.385Z,99944.80
2022-12-29T02:48:03.325Z,99946.20
2022-12-29T02:50:43.028Z,99936.20
2022-12-29T02:53:41.169Z,99930.60
2022-12-29T02:56:15.128Z,99926.60
2022-12-29T02:58:49.894Z,99920.20
2022-12-29T03:01:39.985Z,99921.60
2022-12-29T03:04:32.701Z,99921.40
2022-12-29T03:07:19.414Z,99924.00
2022-12-29T03:10:07.209Z,99922.00
2022-12-29T03:13:12.108Z,99914.60
2022-12-29T03:16:06.492Z,99919.00
2022-12-29T03:18:53.266Z,99910.80
2022-12-29T03:21:56.444Z,99924.00
2022-12-29T03:24:36.703Z,99907.60
2022-12-29T03:27:16.416Z,99904.80
2022-12-29T03:29:56.408Z,99901.00
2022-12-29T03:32:41.150Z,99904.80
2022-12-29T03:35:19.575Z,99903.00
2022-12-29T03:38:07.173Z,99908.00
2022-12-29T03:40:44.571Z,99920.60
2022-12-29T03:43:19.640Z,99917.60
2022-12-29T03:45:53.692Z,99921.80
2022-12-29T03:48:27.443Z,99907.40
2022-12-29T03:51:02.206Z,99895.40
2022-12-29T03:53:36.103Z,99890.40
2022-12-29T03:56:10.581Z,99901.00
2022-12-29T03:58:45.122Z,99904.20
2022-12-29T04:01:23.564Z,99905.60
2022-12-29T04:03:57.554Z,99903.00
2022-12-29T04:06:31.364Z,99903.80
2022-12-29T04:09:11.706Z,99907.20
2022-12-29T04:11:50.744Z,99905.20
2022-12-29T04:14:25.209Z,99904.80
2022-12-29T04:17:00.158Z,99898.20
2022-12-29T04:19:34.255Z,99887.60
2022-12-29T04:22:09.148Z,99874.80
2022-12-29T04:24:43.555Z,99877.00
2022-12-29T04:27:18.646Z,99875.00
2022-12-29T04:30:17.824Z,99862.60
2022-12-29T04:33:16.696Z,99863.40
2022-12-29T04:35:54.978Z,99863.00
2022-12-29T04:38:29.865Z,99856.60
2022-12-29T04:41:06.799Z,99864.80
2022-12-29T04:43:41.786Z,99860.80
2022-12-29T04:46:18.527Z,99860.80
2022-12-29T04:49:09.881Z,99854.00
2022-12-29T04:52:03.328Z,99857.40
2022-12-29T04:54:37.481Z,99862.00
2022-12-29T04:57:16.324Z,99863.00
2022-12-29T04:59:53.216Z,99860.40
2022-12-29T05:02:27.478Z,99861.00
2022-12-29T05:05:03.193Z,99860.60
2022-12-29T05:07:38.765Z,99860.00
2022-12-29T05:10:14.321Z,99854.60
2022-12-29T05:12:48.569Z,99854.40
2022-12-29T05:15:24.079Z,99857.40
2022-12-29T05:17:58.277Z,99839.20
2022-12-29T05:20:32.376Z,99836.00
2022-12-29T05:23:07.552Z,99832.60
2022-12-29T05:25:41.932Z,99829.00
2022-12-29T05:28:25.392Z,99827.60
2022-12-29T05:31:05.089Z,99820.60
2022-12-29T05:33:39.423Z,99821.40
2022-12-29T05:36:14.950Z,99814.00
2022-12-29T05:38:55.502Z,99820.40
2022-12-29T05:41:30.770Z,99812.20
2022-12-29T05:44:08.029Z,99814.40
2022-12-29T05:47:03.918Z,99807.20
2022-12-29T05:50:02.471Z,99796.00
2022-12-29T05:52:56.545Z,99793.20
2022-12-29T05:55:30.216Z,99798.40
2022-12-29T05:58:03.956Z,99798.80
2022-12-29T06:00:37.910Z,99800.80
2022-12-29T06:03:11.944Z,99799.60
2022-12-29T06:05:46.548Z,99795.20
2022-12-29T06:08:21.970Z,99800.20
2022-12-29T06:10:56.582Z,99791.20
2022-12-29T06:13:31.638Z,99793.40
2022-12-29T06:16:05.859Z,99793.00
2022-12-29T06:18:40.105Z,99793.60
2022-12-29T06:21:15.420Z,99792.40
2022-12-29T06:23:49.387Z,99791.80
2022-12-29T06:26:23.472Z,99790.40
2022-12-29T06:28:57.462Z,99792.40
2022-12-29T06:31:31.501Z,99788.20
2022-12-29T06:34:08.472Z,99791.80
2022-12-29T06:36:43.853Z,99782.60
2022-12-29T06:39:18.127Z,99775.60
2022-12-29T06:42:01.791Z,99788.20
2022-12-29T06:44:48.284Z,99786.80
2022-12-29T06:47:22.098Z,99791.40
2022-12-29T06:49:56.251Z,99792.40
2022-12-29T06:52:30.591Z,99797.20
2022-12-29T06:55:04.520Z,99796.60
2022-12-29T06:57:38.576Z,99807.40
2022-12-29T07:00:22.296Z,99817.80
2022-12-29T07:02:59.138Z,99811.20
2022-12-29T07:05:33.748Z,99813.20
2022-12-29T07:08:07.886Z,99815.00
2022-12-29T07:10:41.680Z,99819.20
2022-12-29T07:13:15.340Z,99826.00
2022-12-29T07:15:49.843Z,99818.60
2022-12-29T07:18:24.324Z,99823.00
2022-12-29T07:20:58.429Z,99827.00
2022-12-29T07:23:32.714Z,99832.60
2022-12-29T07:26:08.679Z,99829.80
2022-12-29T07:28:42.960Z,99826.00
2022-12-29T07:31:25.582Z,99827.00
2022-12-29T07:34:00.204Z,99820.60
2022-12-29T07:36:34.768Z,99825.00
2022-12-29T07:39:09.561Z,99828.80
2022-12-29T07:41:47.125Z,99835.20
2022-12-29T07:44:25.047Z,99829.80
2022-12-29T07:47:04.147Z,99830.40
2022-12-29T07:49:37.949Z,99826.40
2022-12-29T07:52:19.499Z,99823.80
2022-12-29T07:54:54.957Z,99825.40
2022-12-29T07:57:32.145Z,99826.20
2022-12-29T08:00:13.856Z,99821.00
2022-12-29T08:02:55.326Z,99825.00
2022-12-29T08:05:29.390Z,99830.00
2022-12-29T08:08:03.419Z,99828.60
2022-12-29T08:10:37.256Z,99824.00
2022-12-29T08:13:11.106Z,99832.20
2022-12-29T08:15:44.954Z,99831.80
2022-12-29T08:18:19.760Z,99831.00
2022-12-29T08:20:55.848Z,99829.80
2022-12-29T08:23:30.308Z,99819.60
2022-12-29T08:26:07.678Z,99825.00
2022-12-29T08:28:42.850Z,99822.60
2022-12-29T08:31:17.179Z,99830.60
2022-12-29T08:33:51.392Z,99841.20
2022-12-29T08:36:25.596Z,99844.80
2022-12-29T08:39:00.464Z,99841.20
2022-12-29T08:41:34.877Z,99829.80
2022-12-29T08:44:08.916Z,99829.20
2022-12-29T08:46:44.183Z,99819.40
2022-12-29T08:49:18.907Z,99812.60
2022-12-29T08:51:53.029Z,99804.60
2022-12-29T08:54:27.651Z,99811.60
2022-12-29T08:57:02.304Z,99818.80
2022-12-29T08:59:44.078Z,99824.00
2022-12-29T09:02:24.151Z,99824.00
2022-12-29T09:05:00.122Z,99816.40
2022-12-29T09:07:34.396Z,99817.20
2022-12-29T09:10:10.494Z,99824.60
2022-12-29T09:12:44.323Z,99829.00
2022-12-29T09:15:18.782Z,99823.00
2022-12-29T09:17:52.869Z,99821.80
2022-12-29T09:20:27.474Z,99809.20
2022-12-29T09:23:01.634Z,99817.00
2022-12-29T09:25:36.308Z,99818.00
2022-12-29T09:28:10.296Z,99815.20
2022-12-29T09:30:45.340Z,99826.80
2022-12-29T09:33:20.920Z,99819.40
2022-12-29T09:35:59.413Z,99824.20
2022-12-29T09:38:33.383Z,99828.60
2022-12-29T09:41:24.796Z,99824.40
2022-12-29T09:44:15.450Z,99818.20
2022-12-29T09:46:55.480Z,99814.80
2022-12-29T09:49:47.120Z,99814.20
2022-12-29T09:52:30.652Z,99811.60
2022-12-29T09:55:14.257Z,99808.40
2022-12-29T09:57:56.831Z,99810.40
2022-12-29T10:00:49.857Z,99796.60
2022-12-29T10:03:30.219Z,99801.60
2022-12-29T10:06:16.712Z,99790.40
2022-12-29T10:09:10.763Z,99795.00
2022-12-29T10:12:08.518Z,99789.60
2022-12-29T10:15:03.012Z,99787.20
2022-12-29T10:17:57.351Z,99797.00
2022-12-29T10:20:46.219Z,99787.20
2022-12-29T10:23:36.635Z,99787.60
2022-12-29T10:26:24.263Z,99780.40
2022-12-29T10:29:20.767Z,99781.00
2022-12-29T10:32:10.642Z,99784.60
2022-12-29T10:35:00.146Z,99775.40
2022-12-29T10:37:54.462Z,99767.20
2022-12-29T10:40:40.871Z,99773.00
2022-12-29T10:43:33.952Z,99771.20
2022-12-29T10:46:23.084Z,99767.00
2022-12-29T10:48:57.401Z,99761.40
2022-12-29T10:51:36.418Z,99758.80
2022-12-29T10:54:17.707Z,99756.20
2022-12-29T10:56:57.087Z,99751.80
2022-12-29T10:59:36.260Z,99750.20
2022-12-29T11:02:50.678Z,99749.80
2022-12-29T11:05:34.916Z,99752.20
2022-12-29T11:08:18.565Z,99749.00
2022-12-29T11:11:04.921Z,99746.80
2022-12-29T11:13:51.514Z,99746.60
2022-12-29T11:16:35.959Z,99736.60
2022-12-29T11:19:24.283Z,99727.80
2022-12-29T11:22:14.608Z,99726.40
2022-12-29T11:24:53.821Z,99718.60
2022-12-29T11:27:29.618Z,99713.80
2022-12-29T11:30:04.708Z,99717.60
2022-12-29T11:32:52.240Z,99714.80
2022-12-29T11:35:39.236Z,99715.40
2022-12-29T11:38:28.952Z,99711.40
2022-12-29T11:41:04.061Z,99704.80
2022-12-29T11:43:44.131Z,99704.40
2022-12-29T11:46:26.027Z,99705.40
2022-12-29T11:49:02.181Z,99700.80
2022-12-29T11:51:45.420Z,99696.40
2022-12-29T11:54:27.444Z,99697.80
2022-12-29T11:57:12.262Z,99701.20
2022-12-29T11:59:57.339Z,99706.80
2022-12-29T12:02:50.855Z,99703.00
2022-12-29T12:05:43.165Z,99698.60
2022-12-29T12:08:32.536Z,99699.80
2022-12-29T12:11:16.349Z,99699.40
2022-12-29T12:14:00.706Z,99697.60
2022-12-29T12:16:43.506Z,99688.60
2022-12-29T12:19:34.381Z,99691.60
2022-12-29T12:22:18.683Z,99689.20
2022-12-29T12:24:58.672Z,99697.80
2022-12-29T12:27:41.232Z,99695.60
2022-12-29T12:30:21.254Z,99708.60
2022-12-29T12:33:01.693Z,99713.00
2022-12-29T12:35:46.494Z,99697.20
2022-12-29T12:38:35.144Z,99699.80
2022-12-29T12:41:21.780Z,99694.60
2022-12-29T12:44:10.056Z,99698.40
2022-12-29T12:47:11.125Z,99697.00
2022-12-29T12:50:14.264Z,99694.00
2022-12-29T12:53:13.283Z,99696.60
2022-12-29T12:56:18.426Z,99698.20
2022-12-29T12:59:05.569Z,99698.40
2022-12-29T13:01:59.859Z,99700.60
2022-12-29T13:04:58.975Z,99697.20
2022-12-29T13:07:52.866Z,99694.00
2022-12-29T13:10:47.043Z,99686.00
2022-12-29T13:13:50.728Z,99691.20
2022-12-29T13:16:38.706Z,99692.40
2022-12-29T13:19:25.433Z,99695.20
2022-12-29T13:22:13.040Z,99696.20
2022-12-29T13:25:11.135Z,99690.80
2022-12-29T13:27:55.492Z,99695.20
2022-12-29T13:30:41.832Z,99698.20
2022-12-29T13:33:26.789Z,99705.40
2022-12-29T13:36:09.685Z,99702.40
2022-12-29T13:38:49.327Z,99703.60
2022-12-29T13:41:35.086Z,99704.20
2022-12-29T13:44:18.003Z,99703.60
2022-12-29T13:46:57.466Z,99714.40
2022-12-29T13:49:35.388Z,99711.80
2022-12-29T13:52:24.002Z,99719.80
2022-12-29T13:55:11.465Z,99721.20
2022-12-29T13:57:56.155Z,99723.80
2022-12-29T14:00:37.664Z,99720.60
2022-12-29T14:03:46.093Z,99725.20
2022-12-29T14:06:30.885Z,99729.00
2022-12-29T14:09:10.458Z,99722.40
2022-12-29T14:11:45.400Z,99731.00
2022-12-29T14:14:30.009Z,99726.40
2022-12-29T14:17:15.628Z,99738.20
2022-12-29T14:19:54.426Z,99729.60
2022-12-29T14:22:33.441Z,99741.00
2022-12-29T14:25:57.445Z,99739.40
2022-12-29T14:28:34.341Z,99750.00
2022-12-29T14:31:29.306Z,99744.40
2022-12-29T14:34:40.535Z,99749.40
2022-12-29T14:37:30.898Z,99740.20
2022-12-29T14:40:23.244Z,99744.80
2022-12-29T14:43:00.385Z,99742.20
2022-12-29T14:45:38.455Z,99734.20
2022-12-29T14:48:44.463Z,99738.60
2022-12-29T14:51:41.638Z,99733.40
2022-12-29T14:54:51.591Z,99737.20
2022-12-29T14:57:41.543Z,99740.20
2022-12-29T15:00:31.695Z,99743.80
2022-12-29T15:03:14.949Z,99741.20
2022-12-29T15:05:53.628Z,99737.80
2022-12-29T15:08:33.935Z,99754.60
2022-12-29T15:11:16.414Z,99762.20
2022-12-29T15:13:52.040Z,99763.00
2022-12-29T15:16:35.029Z,99761.40
2022-12-29T15:19:25.965Z,99765.20
2022-12-29T15:22:03.034Z,99757.40
2022-12-29T15:24:43.243Z,99765.60
2022-12-29T15:27:21.661Z,99765.80
2022-12-29T15:30:13.814Z,99772.60
2022-12-29T15:32:54.066Z,99770.80
2022-12-29T15:35:37.061Z,99772.20
2022-12-29T15:38:32.284Z,99780.00
2022-12-29T15:41:24.306Z,99775.00
2022-12-29T15:44:16.069Z,99779.00
2022-12-29T15:46:50.513Z,99773.00
2022-12-29T15:49:31.883Z,99777.20
2022-12-29T15:52:11.177Z,99777.60
2022-12-29T15:54:48.644Z,99777.60
2022-12-29T15:57:30.371Z,99781.40
2022-12-29T16:00:05.323Z,99779.00
2022-12-29T16:02:46.402Z,99779.20
2022-12-29T16:05:22.527Z,99784.20
2022-12-29T16:08:01.761Z,99788.60
2022-12-29T16:10:41.721Z,99784.20
2022-12-29T16:13:27.661Z,99785.00
2022-12-29T16:16:14.226Z,99786.20
2022-12-29T16:18:55.212Z,99782.60
2022-12-29T16:21:38.199Z,99787.00
2022-12-29T16:24:19.246Z,99788.40
2022-12-29T16:27:00.879Z,99780.20
2022-12-29T16:29:36.084Z,99786.00
2022-12-29T16:32:30.921Z,99786.40
2022-12-29T16:35:23.645Z,99785.80
2022-12-29T16:38:19.359Z,99791.60
2022-12-29T16:40:59.045Z,99798.60
2022-12-29T16:43:36.021Z,99791.60
2022-12-29T16:46:31.141Z,99791.20
2022-12-29T16:49:06.148Z,99797.60
2022-12-29T16:51:41.864Z,99796.20
2022-12-29T16:54:26.312Z,99791.60
2022-12-29T16:57:00.719Z,99796.20
2022-12-29T16:59:40.005Z,99792.80
2022-12-29T17:02:22.263Z,99795.60
2022-12-29T17:04:57.208Z,99800.20
2022-12-29T17:07:32.256Z,99805.00
2022-12-29T17:10:07.305Z,99800.00
2022-12-29T17:12:42.891Z,99799.20
2022-12-29T17:15:27.384Z,99803.80
2022-12-29T17:18:06.267Z,99802.40
2022-12-29T17:20:43.158Z,99806.20
2022-12-29T17:23:26.132Z,99811.80
2022-12-29T17:26:01.403Z,99819.40
2022-12-29T17:28:36.833Z,99814.00
2022-12-29T17:31:13.532Z,99815.00
2022-12-29T17:33:49.174Z,99821.60
2022-12-29T17:36:23.079Z,99819.40
2022-12-29T17:38:57.307Z,99820.80
2022-12-29T17:41:31.826Z,99820.60
2022-12-29T17:44:06.292Z,99825.20
2022-12-29T17:46:40.511Z,99823.40
2022-12-29T17:49:19.571Z,99821.60
2022-12-29T17:51:53.395Z,99821.20
2022-12-29T17:54:29.182Z,99823.00
2022-12-29T17:57:03.365Z,99827.80
2022-12-29T17:59:37.360Z,99830.00
2022-12-29T18:02:29.353Z,99834.00
2022-12-29T18:05:04.162Z,99833.00
2022-12-29T18:07:38.242Z,99834.80
2022-12-29T18:10:12.992Z,99833.20
2022-12-29T18:12:50.213Z,99837.40
2022-12-29T18:15:28.439Z,99841.80
2022-12-29T18:18:11.527Z,99840.60
2022-12-29T18:20:47.345Z,99847.20
2022-12-29T18:23:25.990Z,99846.80
2022-12-29T18:26:04.663Z,99849.00
2022-12-29T18:28:39.034Z,99850.40
2022-12-29T18:31:23.723Z,99847.80
2022-12-29T18:34:00.780Z,99851.40
2022-12-29T18:36:34.816Z,99845.00
2022-12-29T18:39:08.571Z,99845.80
2022-12-29T18:41:42.717Z,99840.60
2022-12-29T18:44:18.650Z,99842.00
2022-12-29T18:46:52.738Z,99853.20
2022-12-29T18:49:27.104Z,99849.60
2022-12-29T18:52:01.576Z,99843.80
2022-12-29T18:54:37.131Z,99845.60
2022-12-29T18:57:11.390Z,99851.00
2022-12-29T18:59:45.785Z,99846.20
2022-12-29T19:02:23.037Z,99849.80
2022-12-29T19:05:05.238Z,99845.80
2022-12-29T19:07:41.465Z,99847.40
2022-12-29T19:10:17.646Z,99846.80
2022-12-29T19:12:53.071Z,99843.80
2022-12-29T19:15:31.051Z,99844.20
2022-12-29T19:18:43.147Z,99841.80
2022-12-29T19:21:04.332Z,99842.60
2022-12-29T19:23:38.900Z,99844.40
2022-12-29T19:26:32.276Z,99841.40
2022-12-29T19:29:08.162Z,99840.20
2022-12-29T19:31:43.147Z,99838.80
2022-12-29T19:34:20.495Z,99838.00
2022-12-29T19:36:57.404Z,99843.20
2022-12-29T19:39:31.933Z,99844.40
2022-12-29T19:42:06.186Z,99848.80
2022-12-29T19:44:41.101Z,99848.80
2022-12-29T19:47:16.077Z,99843.80
2022-12-29T19:49:50.702Z,99838.80
2022-12-29T19:52:25.258Z,99843.20
2022-12-29T19:55:00.515Z,99843.20
2022-12-29T19:57:35.790Z,99848.80
2022-12-29T20:00:13.614Z,99850.80
2022-12-29T20:02:48.111Z,99844.40
2022-12-29T20:05:23.155Z,99849.00
2022-12-29T20:07:57.888Z,99848.00
2022-12-29T20:10:32.083Z,99848.60
2022-12-29T20:13:06.165Z,99853.60
2022-12-29T20:15:43.986Z,99852.00
2022-12-29T20:18:21.282Z,99860.20
2022-12-29T20:21:07.403Z,99857.80
2022-12-29T20:23:43.612Z,99864.00
2022-12-29T20:26:24.233Z,99869.40
2022-12-29T20:29:00.213Z,99869.40
2022-12-29T20:31:37.875Z,99865.00
2022-12-29T20:34:14.322Z,99866.80
2022-12-29T20:36:50.931Z,99866.00
2022-12-29T20:39:26.255Z,99865.00
2022-12-29T20:42:00.555Z,99878.60
2022-12-29T20:44:36.690Z,99889.00
2022-12-29T20:47:10.918Z,99892.80
2022-12-29T20:49:45.531Z,99889.00
2022-12-29T20:52:20.458Z,99899.60
2022-12-29T20:54:54.714Z,99900.20
2022-12-29T20:57:39.324Z,99904.60
2022-12-29T21:00:23.830Z,99898.80
2022-12-29T21:02:58.592Z,99905.20
2022-12-29T21:05:33.610Z,99904.00
2022-12-29T21:08:08.491Z,99897.60
2022-12-29T21:10:42.605Z,99904.80
2022-12-29T21:13:18.131Z,99906.40
2022-12-29T21:15:56.503Z,99904.80
2022-12-29T21:18:32.477Z,99895.40
2022-12-29T21:21:10.618Z,99898.60
2022-12-29T21:23:45.462Z,99894.60
2022-12-29T21:26:23.272Z,99898.80
2022-12-29T21:28:57.593Z,99892.20
2022-12-29T21:31:34.730Z,99901.00
2022-12-29T21:34:10.457Z,99900.60
2022-12-29T21:36:44.448Z,99907.40
2022-12-29T21:39:18.645Z,99903.20
2022-12-29T21:41:52.820Z,99898.80
2022-12-29T21:44:44.845Z,99902.40
2022-12-29T21:47:18.888Z,99917.80
2022-12-29T21:49:52.663Z,99912.40
2022-12-29T21:52:26.554Z,99917.20
2022-12-29T21:55:05.129Z,99919.80
2022-12-29T21:57:56.348Z,99925.60
2022-12-29T22:00:47.974Z,99925.60
2022-12-29T22:03:40.285Z,99924.20
2022-12-29T22:06:33.883Z,99924.00
2022-12-29T22:09:25.296Z,99923.00
2022-12-29T22:12:17.069Z,99920.60
2022-12-29T22:14:51.214Z,99919.60
2022-12-29T22:17:28.790Z,99921.80
2022-12-29T22:20:04.260Z,99914.00
2022-12-29T22:22:40.990Z,99911.40
2022-12-29T22:25:15.523Z,99907.80
2022-12-29T22:27:55.685Z,99908.80
2022-12-29T22:30:34.138Z,99903.40
2022-12-29T22:33:08.777Z,99898.20
2022-12-29T22:35:42.871Z,99887.00
2022-12-29T22:38:17.195Z,99880.60
2022-12-29T22:40:51.083Z,99886.40
2022-12-29T22:43:26.036Z,99885.20
2022-12-29T22:46:05.618Z,99888.80
2022-12-29T22:48:40.254Z,99896.00
2022-12-29T22:51:14.586Z,99898.60
2022-12-29T22:53:51.370Z,99903.00
2022-12-29T22:56:25.309Z,99886.20
2022-12-29T22:58:59.729Z,99886.60
2022-12-29T23:01:34.034Z,99882.60
2022-12-29T23:04:55.635Z,99884.60
2022-12-29T23:07:02.547Z,99882.20
2022-12-29T23:09:37.323Z,99882.60
2022-12-29T23:12:11.959Z,99880.20
2022-12-29T23:14:46.117Z,99881.40
2022-12-29T23:17:20.273Z,99874.40
2022-12-29T23:19:54.141Z,99880.80
2022-12-29T23:22:28.207Z,99886.00
2022-12-29T23:25:02.268Z,99879.40
2022-12-29T23:27:37.099Z,99881.60
2022-12-29T23:30:13.583Z,99883.00
2022-12-29T23:32:47.377Z,99883.40
2022-12-29T23:35:22.425Z,99883.20
2022-12-29T23:37:57.513Z,99886.80
2022-12-29T23:40:33.138Z,99900.40
2022-12-29T23:43:07.785Z,99898.40
2022-12-29T23:45:48.978Z,99899.80
2022-12-29T23:48:25.485Z,99904.00
2022-12-29T23:51:00.851Z,99901.60
2022-12-29T23:53:35.341Z,99908.80
2022-12-29T23:56:13.363Z,99910.40
2022-12-29T23:58:47.732Z,99902.60
